Time;durP1;ratioP1;P1;durP2;ratioP2;P2;SDS_P1;SDS_P2;PMS_P1;PMS_P2;Temp;Humidity;BMP_temperature;BMP_pressure;BME280_temperature;BME280_humidity;BME280_pressure;Samples;Min_cycle;Max_cycle;Signal;HPM_P1;HPM_P2
2023/06/20 00:01:18;;;;;;;12.65;9.43;;;;;19.40;96122.00;;;;8357441;28;20213;-65
2023/06/20 00:05:26;;;;;;;12.20;8.55;;;;;19.40;96115.00;;;;8357640;28;20263;-65
2023/06/20 00:09:32;;;;;;;10.98;9.07;;;;;19.30;96116.00;;;;8357620;28;20208;-63
2023/06/20 00:13:36;;;;;;;10.18;9.00;;;;;19.20;96112.00;;;;8374411;28;20224;-64
2023/06/20 00:17:41;;;;;;;12.85;9.65;;;;;19.20;96107.00;;;;8372348;28;20295;-63
2023/06/20 00:21:45;;;;;;;16.50;9.73;;;;;19.00;96113.00;;;;8357144;28;20193;-64
2023/06/20 00:25:49;;;;;;;14.10;9.32;;;;;18.90;96109.00;;;;8347056;28;20642;-63
2023/06/20 00:29:52;;;;;;;12.32;9.73;;;;;18.80;96109.00;;;;8365958;28;20232;-64
2023/06/20 00:33:56;;;;;;;16.67;9.95;;;;;18.70;96092.00;;;;8367743;28;20233;-64
2023/06/20 00:38:00;;;;;;;15.10;9.40;;;;;18.60;96079.00;;;;8358243;28;20200;-64
2023/06/20 00:42:06;;;;;;;13.75;9.35;;;;;18.60;96087.00;;;;8357897;28;20287;-64
2023/06/20 00:46:09;;;;;;;14.45;9.95;;;;;18.60;96094.00;;;;8359191;28;20320;-64
2023/06/20 00:50:15;;;;;;;15.32;10.68;;;;;18.50;96100.00;;;;8375322;28;20230;-64
2023/06/20 00:54:19;;;;;;;13.55;9.95;;;;;18.40;96096.00;;;;8366507;28;20215;-63
2023/06/20 00:58:24;;;;;;;18.15;11.95;;;;;18.20;96096.00;;;;8369929;28;20522;-63
2023/06/20 01:02:27;;;;;;;13.65;10.63;;;;;18.10;96101.00;;;;8376020;28;20252;-63
2023/06/20 01:06:42;;;;;;;15.07;11.57;;;;;18.00;96097.00;;;;8374975;28;20308;-64
2023/06/20 01:10:53;;;;;;;15.10;11.90;;;;;17.90;96085.00;;;;8357268;28;20236;-64
2023/06/20 01:15:07;;;;;;;18.23;13.55;;;;;17.90;96083.00;;;;8362819;28;20286;-64
2023/06/20 01:19:21;;;;;;;13.80;10.60;;;;;17.90;96093.00;;;;8367501;28;20210;-64
2023/06/20 01:23:31;;;;;;;11.95;10.05;;;;;17.90;96090.00;;;;8361720;28;20200;-65
2023/06/20 01:27:39;;;;;;;15.25;11.48;;;;;17.90;96093.00;;;;8367100;28;20723;-64
2023/06/20 01:31:57;;;;;;;16.17;10.75;;;;;17.80;96093.00;;;;8366468;28;20202;-64
2023/06/20 01:36:04;;;;;;;13.00;10.32;;;;;17.80;96096.00;;;;8358218;28;20267;-63
2023/06/20 01:40:14;;;;;;;13.75;10.25;;;;;17.70;96108.00;;;;8373492;28;20223;-63
2023/06/20 01:44:18;;;;;;;17.77;11.65;;;;;17.60;96113.00;;;;8363955;28;20283;-64
2023/06/20 01:48:25;;;;;;;21.33;11.93;;;;;17.50;96107.00;;;;8368003;28;20236;-63
2023/06/20 01:52:29;;;;;;;15.63;11.32;;;;;17.40;96121.00;;;;8355297;28;20312;-63
2023/06/20 01:56:39;;;;;;;20.20;11.77;;;;;17.40;96123.00;;;;8365796;28;20211;-64
2023/06/20 02:00:42;;;;;;;19.42;11.60;;;;;17.30;96118.00;;;;8361323;28;20193;-63
2023/06/20 02:04:49;;;;;;;13.50;10.65;;;;;17.20;96121.00;;;;8373915;28;20228;-64
2023/06/20 02:08:58;;;;;;;19.67;12.23;;;;;17.00;96111.00;;;;8354443;28;20189;-63
2023/06/20 02:13:03;;;;;;;21.80;13.48;;;;;16.90;96123.00;;;;8362137;28;20207;-62
2023/06/20 02:17:08;;;;;;;18.02;13.20;;;;;16.90;96107.00;;;;8354682;28;20197;-65
2023/06/20 02:21:22;;;;;;;19.42;13.32;;;;;16.90;96115.00;;;;8358903;28;20211;-63
2023/06/20 02:25:33;;;;;;;16.90;12.15;;;;;16.80;96125.00;;;;8365894;28;21765;-64
2023/06/20 02:29:42;;;;;;;21.60;13.05;;;;;16.90;96136.00;;;;8367250;28;20245;-64
2023/06/20 02:33:47;;;;;;;16.42;11.82;;;;;16.90;96144.00;;;;8355673;28;20627;-64
2023/06/20 02:37:59;;;;;;;14.50;11.07;;;;;16.90;96151.00;;;;8360069;28;20228;-65
2023/06/20 02:42:04;;;;;;;17.27;11.50;;;;;16.90;96141.00;;;;8356732;28;20287;-64
2023/06/20 02:46:20;;;;;;;15.88;11.55;;;;;16.90;96146.00;;;;8356481;28;20243;-64
2023/06/20 02:50:30;;;;;;;17.38;11.68;;;;;17.00;96152.00;;;;8352413;28;20224;-63
2023/06/20 02:54:38;;;;;;;14.98;12.18;;;;;17.00;96145.00;;;;8355396;28;20258;-63
2023/06/20 02:58:52;;;;;;;15.02;12.50;;;;;17.00;96146.00;;;;8352563;28;20212;-62
2023/06/20 03:03:07;;;;;;;20.05;12.35;;;;;17.10;96152.00;;;;8400303;22;20228;-64
2023/06/20 03:07:12;;;;;;;15.98;12.68;;;;;17.10;96153.00;;;;8382248;28;20224;-62
2023/06/20 03:11:16;;;;;;;18.90;13.20;;;;;17.20;96166.00;;;;8377803;28;20204;-62
2023/06/20 03:15:26;;;;;;;22.75;11.02;;;;;17.20;96181.00;;;;8381502;28;20215;-67
2023/06/20 03:19:35;;;;;;;16.83;11.00;;;;;17.30;96189.00;;;;8384346;28;20288;-67
2023/06/20 03:23:40;;;;;;;16.98;11.60;;;;;17.40;96193.00;;;;8384106;28;20208;-67
2023/06/20 03:27:47;;;;;;;14.88;11.50;;;;;17.40;96208.00;;;;8385331;28;21188;-70
2023/06/20 03:31:53;;;;;;;14.00;11.15;;;;;17.50;96219.00;;;;8387942;28;20279;-68
2023/06/20 03:36:00;;;;;;;16.77;11.93;;;;;17.70;96239.00;;;;8388328;28;20230;-68
2023/06/20 03:40:10;;;;;;;15.55;11.38;;;;;17.80;96248.00;;;;8390379;28;20699;-68
2023/06/20 03:44:17;;;;;;;15.38;10.88;;;;;18.00;96263.00;;;;8389932;28;20665;-67
2023/06/20 03:48:22;;;;;;;19.45;11.18;;;;;18.10;96252.00;;;;8388480;28;20631;-68
2023/06/20 03:52:27;;;;;;;24.00;10.95;;;;;18.20;96251.00;;;;8391625;28;20207;-69
2023/06/20 03:56:31;;;;;;;15.48;11.23;;;;;18.40;96245.00;;;;8388271;28;20223;-67
2023/06/20 04:00:39;;;;;;;19.25;12.43;;;;;18.60;96254.00;;;;8388113;28;20701;-67
2023/06/20 04:04:49;;;;;;;18.73;13.98;;;;;18.90;96262.00;;;;8390177;28;20590;-69
2023/06/20 04:08:54;;;;;;;18.05;13.02;;;;;19.30;96253.00;;;;8380177;28;20224;-68
2023/06/20 04:12:57;;;;;;;16.90;13.15;;;;;19.70;96257.00;;;;8381077;28;20905;-68
2023/06/20 04:17:00;;;;;;;15.20;12.57;;;;;19.90;96249.00;;;;8380327;28;20580;-69
2023/06/20 04:21:03;;;;;;;16.23;12.20;;;;;20.10;96252.00;;;;8383863;28;20224;-70
2023/06/20 04:25:09;;;;;;;15.50;11.55;;;;;20.20;96258.00;;;;8372608;28;20196;-67
2023/06/20 04:29:14;;;;;;;20.00;11.38;;;;;20.20;96264.00;;;;8379053;28;20323;-66
2023/06/20 04:33:19;;;;;;;14.25;10.52;;;;;20.20;96266.00;;;;8384638;28;20203;-66
2023/06/20 04:37:22;;;;;;;20.30;12.13;;;;;20.20;96273.00;;;;8382558;28;20282;-67
2023/06/20 04:41:27;;;;;;;14.25;10.90;;;;;20.40;96271.00;;;;8371304;28;20211;-68
2023/06/20 04:45:31;;;;;;;13.95;10.65;;;;;20.50;96273.00;;;;8376083;28;20291;-69
2023/06/20 04:49:35;;;;;;;14.27;10.90;;;;;20.80;96252.00;;;;8379080;28;20200;-69
2023/06/20 04:53:43;;;;;;;14.90;10.55;;;;;21.20;96259.00;;;;8369403;28;20195;-67
2023/06/20 04:57:54;;;;;;;14.98;10.07;;;;;21.70;96248.00;;;;8383924;28;20733;-67
2023/06/20 05:01:57;;;;;;;20.77;10.23;;;;;22.10;96246.00;;;;8339665;28;20223;-67
2023/06/20 05:06:00;;;;;;;11.13;8.80;;;;;22.40;96239.00;;;;8371356;28;20235;-68
2023/06/20 05:10:04;;;;;;;12.25;8.40;;;;;22.70;96228.00;;;;8377212;28;20585;-64
2023/06/20 05:14:09;;;;;;;11.82;8.52;;;;;23.00;96233.00;;;;8372338;28;20207;-68
2023/06/20 05:18:12;;;;;;;9.27;7.38;;;;;23.30;96249.00;;;;8372310;28;20708;-69
2023/06/20 05:22:16;;;;;;;8.88;6.97;;;;;23.70;96249.00;;;;8373825;28;20313;-77
2023/06/20 05:26:19;;;;;;;15.63;9.55;;;;;23.80;96248.00;;;;8370485;28;20314;-66
2023/06/20 05:30:24;;;;;;;14.13;9.98;;;;;23.70;96260.00;;;;8379407;28;20295;-65
2023/06/20 05:34:28;;;;;;;13.23;10.13;;;;;23.60;96270.00;;;;8372085;28;20196;-66
2023/06/20 05:38:37;;;;;;;11.57;10.38;;;;;23.60;96260.00;;;;8372632;28;20767;-64
2023/06/20 05:42:40;;;;;;;16.38;10.52;;;;;23.70;96260.00;;;;8375871;28;20295;-66
2023/06/20 05:46:44;;;;;;;14.18;10.52;;;;;23.80;96258.00;;;;8377836;28;20222;-66
2023/06/20 05:51:00;;;;;;;13.57;10.52;;;;;23.80;96263.00;;;;8370537;28;20230;-65
2023/06/20 05:55:03;;;;;;;14.65;10.98;;;;;23.90;96261.00;;;;8364338;28;20669;-66
2023/06/20 05:59:08;;;;;;;11.75;9.60;;;;;24.30;96269.00;;;;8362840;28;20310;-67
2023/06/20 06:03:16;;;;;;;11.95;10.57;;;;;24.80;96271.00;;;;8365169;28;20234;-66
2023/06/20 06:07:21;;;;;;;12.85;10.65;;;;;25.30;96262.00;;;;8367801;28;20262;-67
2023/06/20 06:11:25;;;;;;;11.80;9.85;;;;;26.10;96261.00;;;;8360608;28;20291;-68
2023/06/20 06:15:28;;;;;;;12.85;9.77;;;;;26.90;96272.00;;;;8377674;28;20254;-67
2023/06/20 06:19:33;;;;;;;10.48;9.45;;;;;26.90;96273.00;;;;8376187;28;20227;-67
2023/06/20 06:23:36;;;;;;;17.38;9.70;;;;;26.70;96271.00;;;;8377520;28;20820;-65
2023/06/20 06:27:42;;;;;;;11.30;9.80;;;;;26.70;96284.00;;;;8353476;28;20227;-65
2023/06/20 06:31:46;;;;;;;13.63;10.00;;;;;26.70;96287.00;;;;8371248;28;20199;-65
2023/06/20 06:35:50;;;;;;;18.90;9.77;;;;;26.80;96282.00;;;;8374446;28;20663;-67
2023/06/20 06:39:56;;;;;;;14.80;9.50;;;;;27.00;96290.00;;;;8370919;28;20295;-64
2023/06/20 06:44:02;;;;;;;13.73;9.32;;;;;27.30;96299.00;;;;8374011;28;20193;-66
2023/06/20 06:48:08;;;;;;;11.27;9.80;;;;;27.50;96292.00;;;;8371933;28;20228;-65
2023/06/20 06:52:15;;;;;;;11.90;9.80;;;;;27.40;96289.00;;;;8370754;28;20200;-65
2023/06/20 06:56:20;;;;;;;11.52;9.50;;;;;27.30;96290.00;;;;8374618;28;20192;-65
2023/06/20 07:00:24;;;;;;;12.70;10.80;;;;;27.30;96288.00;;;;8371802;28;20233;-64
2023/06/20 07:04:27;;;;;;;11.85;9.90;;;;;27.40;96295.00;;;;8352463;28;20270;-64
2023/06/20 07:08:34;;;;;;;12.02;10.07;;;;;27.90;96303.00;;;;8379200;28;20224;-64
2023/06/20 07:12:40;;;;;;;13.65;10.25;;;;;28.10;96302.00;;;;8373208;28;20204;-64
2023/06/20 07:16:45;;;;;;;11.80;9.85;;;;;28.40;96307.00;;;;8373065;28;20629;-64
2023/06/20 07:21:06;;;;;;;11.50;10.20;;;;;28.60;96322.00;;;;8361469;28;20274;-64
2023/06/20 07:25:11;;;;;;;13.63;9.40;;;;;28.80;96320.00;;;;8366558;28;20751;-65
2023/06/20 07:29:14;;;;;;;12.40;9.93;;;;;28.70;96326.00;;;;8382607;28;20251;-64
2023/06/20 07:33:18;;;;;;;13.48;9.63;;;;;28.70;96319.00;;;;8380396;28;20641;-65
2023/06/20 07:37:21;;;;;;;9.93;8.93;;;;;28.70;96306.00;;;;8376063;28;20218;-64
2023/06/20 07:41:28;;;;;;;10.05;8.98;;;;;28.90;96316.00;;;;8361552;28;20565;-65
2023/06/20 07:45:33;;;;;;;31.42;9.55;;;;;28.90;96308.00;;;;8376111;28;20196;-64
2023/06/20 07:49:40;;;;;;;11.70;8.45;;;;;29.00;96309.00;;;;8372300;28;20696;-64
2023/06/20 07:53:45;;;;;;;13.77;8.00;;;;;28.90;96310.00;;;;8374449;28;20262;-64
2023/06/20 07:57:50;;;;;;;13.55;9.05;;;;;28.90;96300.00;;;;8374026;28;20768;-66
2023/06/20 08:01:56;;;;;;;9.23;8.23;;;;;28.90;96307.00;;;;8377991;28;21215;-65
2023/06/20 08:06:00;;;;;;;8.73;7.85;;;;;28.90;96308.00;;;;8352848;28;20638;-65
2023/06/20 08:10:04;;;;;;;12.48;9.27;;;;;28.80;96300.00;;;;8373019;28;20350;-65
2023/06/20 08:14:08;;;;;;;10.63;8.32;;;;;28.60;96301.00;;;;8375186;28;20239;-64
2023/06/20 08:18:14;;;;;;;8.35;7.50;;;;;28.60;96314.00;;;;8369615;28;20235;-64
2023/06/20 08:22:17;;;;;;;10.80;8.63;;;;;28.80;96319.00;;;;8369224;28;20645;-64
2023/06/20 08:26:21;;;;;;;12.75;7.88;;;;;29.10;96317.00;;;;8372722;28;20319;-64
2023/06/20 08:30:29;;;;;;;13.35;8.20;;;;;30.60;96316.00;;;;8347854;28;20232;-65
2023/06/20 08:34:32;;;;;;;12.27;9.77;;;;;31.20;96315.00;;;;8372707;28;20200;-66
2023/06/20 08:38:38;;;;;;;14.07;9.73;;;;;31.70;96319.00;;;;8370600;28;20224;-65
2023/06/20 08:42:43;;;;;;;10.77;9.38;;;;;32.30;96322.00;;;;8373425;28;20196;-65
2023/06/20 08:46:56;;;;;;;12.98;10.25;;;;;33.10;96327.00;;;;8359643;28;20197;-67
2023/06/20 08:51:00;;;;;;;10.93;9.77;;;;;34.20;96327.00;;;;8357712;28;20199;-66
2023/06/20 08:55:07;;;;;;;9.85;8.88;;;;;34.80;96320.00;;;;8366437;28;20202;-66
2023/06/20 08:59:10;;;;;;;10.77;9.68;;;;;35.00;96319.00;;;;8362665;28;20292;-65
2023/06/20 09:03:17;;;;;;;11.60;9.70;;;;;35.50;96322.00;;;;8374046;28;20314;-65
2023/06/20 09:07:21;;;;;;;9.32;7.60;;;;;35.80;96315.00;;;;8369279;28;20232;-66
2023/06/20 09:11:27;;;;;;;8.52;7.72;;;;;36.10;96307.00;;;;8373743;28;20204;-67
2023/06/20 09:15:33;;;;;;;11.25;7.88;;;;;36.10;96312.00;;;;8368851;28;20221;-66
2023/06/20 09:19:43;;;;;;;10.85;7.45;;;;;36.30;96300.00;;;;8373278;28;20287;-66
2023/06/20 09:23:48;;;;;;;8.75;7.95;;;;;36.90;96289.00;;;;8346879;28;20196;-67
2023/06/20 09:27:52;;;;;;;9.80;8.20;;;;;37.30;96285.00;;;;8354661;28;20667;-66
2023/06/20 09:31:56;;;;;;;9.00;8.13;;;;;37.50;96294.00;;;;8368960;28;20711;-68
2023/06/20 09:36:13;;;;;;;8.82;7.93;;;;;37.60;96294.00;;;;8383050;28;20300;-66
2023/06/20 09:40:19;;;;;;;10.00;7.78;;;;;37.70;96293.00;;;;8371023;28;20235;-66
2023/06/20 09:44:25;;;;;;;8.55;7.50;;;;;38.40;96292.00;;;;8375444;28;20743;-67
2023/06/20 09:48:33;;;;;;;7.78;6.90;;;;;38.40;96297.00;;;;8375161;28;20316;-67
2023/06/20 09:52:44;;;;;;;8.18;7.22;;;;;38.40;96288.00;;;;8373555;28;20192;-71
2023/06/20 09:56:49;;;;;;;7.70;7.03;;;;;38.70;96284.00;;;;8369763;28;20232;-66
2023/06/20 10:00:52;;;;;;;11.35;7.10;;;;;38.50;96278.00;;;;8371852;28;20208;-66
2023/06/20 10:04:59;;;;;;;7.80;7.00;;;;;38.30;96274.00;;;;8378172;28;20228;-66
2023/06/20 10:09:06;;;;;;;8.25;7.45;;;;;37.80;96277.00;;;;8377905;28;20293;-66
2023/06/20 10:13:11;;;;;;;6.90;6.20;;;;;37.70;96284.00;;;;8359419;28;20196;-66
2023/06/20 10:17:15;;;;;;;5.97;5.47;;;;;37.40;96271.00;;;;8379014;28;20199;-67
2023/06/20 10:21:57;;;;;;;7.57;6.00;;;;;37.30;96268.00;;;;8381855;28;20242;-67
2023/06/20 10:26:05;;;;;;;7.80;6.13;;;;;38.30;96262.00;;;;8370636;28;20249;-66
2023/06/20 10:30:10;;;;;;;6.40;5.78;;;;;39.10;96262.00;;;;8381010;28;20212;-66
2023/06/20 10:34:29;;;;;;;6.88;6.28;;;;;39.50;96262.00;;;;8365488;28;20274;-66
2023/06/20 10:38:33;;;;;;;6.38;5.82;;;;;39.90;96257.00;;;;8367161;28;20283;-66
2023/06/20 10:42:39;;;;;;;6.70;5.97;;;;;39.90;96251.00;;;;8366648;28;20240;-67
2023/06/20 10:46:48;;;;;;;7.10;5.57;;;;;40.00;96242.00;;;;8361326;28;20204;-66
2023/06/20 10:50:58;;;;;;;6.53;5.88;;;;;40.30;96250.00;;;;8364448;28;20418;-66
2023/06/20 10:55:02;;;;;;;5.93;5.43;;;;;40.40;96249.00;;;;8366715;28;20208;-67
2023/06/20 10:59:12;;;;;;;5.70;5.20;;;;;40.50;96247.00;;;;8364398;28;20667;-67
2023/06/20 11:03:17;;;;;;;6.55;4.93;;;;;40.50;96247.00;;;;8367229;28;20243;-67
2023/06/20 11:07:21;;;;;;;5.00;4.60;;;;;40.10;96245.00;;;;8365190;28;20676;-66
2023/06/20 11:11:34;;;;;;;8.30;5.15;;;;;40.40;96243.00;;;;8366227;28;20228;-66
2023/06/20 11:15:39;;;;;;;7.25;5.15;;;;;40.90;96250.00;;;;8364965;28;20189;-66
2023/06/20 11:19:43;;;;;;;6.35;5.70;;;;;40.90;96245.00;;;;8358215;28;20291;-66
2023/06/20 11:23:58;;;;;;;5.38;4.97;;;;;41.40;96237.00;;;;8361721;28;20203;-67
2023/06/20 11:28:06;;;;;;;5.85;4.88;;;;;41.70;96232.00;;;;8367258;28;20196;-65
2023/06/20 11:32:14;;;;;;;4.63;4.07;;;;;41.60;96218.00;;;;8370405;28;20200;-68
2023/06/20 11:36:19;;;;;;;6.40;4.50;;;;;41.50;96216.00;;;;8369345;28;20276;-67
2023/06/20 11:40:27;;;;;;;4.90;4.50;;;;;41.50;96219.00;;;;8356191;28;20239;-68
2023/06/20 11:44:34;;;;;;;4.93;4.45;;;;;41.40;96208.00;;;;8384941;28;20232;-66
2023/06/20 11:48:49;;;;;;;4.88;4.47;;;;;41.50;96207.00;;;;8374323;28;20310;-67
2023/06/20 11:52:57;;;;;;;5.10;4.57;;;;;41.60;96205.00;;;;8380831;28;20715;-68
2023/06/20 11:57:00;;;;;;;5.93;4.78;;;;;41.90;96207.00;;;;8377515;28;20200;-66
2023/06/20 12:01:08;;;;;;;7.68;4.97;;;;;42.20;96198.00;;;;8372318;28;22001;-66
2023/06/20 12:05:16;;;;;;;4.72;4.05;;;;;42.10;96194.00;;;;8375486;28;20511;-66
2023/06/20 12:09:26;;;;;;;7.05;4.90;;;;;42.30;96194.00;;;;8372015;28;20245;-65
2023/06/20 12:13:30;;;;;;;8.02;4.85;;;;;42.80;96191.00;;;;8377887;28;20204;-66
2023/06/20 12:17:36;;;;;;;5.18;4.35;;;;;42.30;96194.00;;;;8375892;28;20224;-67
2023/06/20 12:21:43;;;;;;;5.00;4.50;;;;;41.90;96188.00;;;;8368666;28;20261;-66
2023/06/20 12:25:47;;;;;;;4.60;4.25;;;;;42.20;96183.00;;;;8376340;28;20200;-67
2023/06/20 12:29:53;;;;;;;6.43;4.57;;;;;42.10;96181.00;;;;8368588;28;20319;-66
2023/06/20 12:33:56;;;;;;;5.43;4.30;;;;;42.30;96189.00;;;;8379539;28;20773;-66
2023/06/20 12:38:01;;;;;;;8.85;4.25;;;;;42.30;96185.00;;;;8376833;28;20203;-67
2023/06/20 12:42:05;;;;;;;4.43;3.58;;;;;41.80;96180.00;;;;8375711;28;20854;-65
2023/06/20 12:46:13;;;;;;;6.07;3.90;;;;;41.80;96170.00;;;;8368235;28;20304;-65
2023/06/20 12:50:19;;;;;;;4.68;4.05;;;;;41.80;96168.00;;;;8382368;28;20259;-65
2023/06/20 12:54:28;;;;;;;7.18;4.53;;;;;41.60;96167.00;;;;8374086;28;20208;-65
2023/06/20 12:58:38;;;;;;;20.52;4.60;;;;;41.00;96153.00;;;;8361819;28;20327;-66
2023/06/20 13:02:44;;;;;;;7.40;4.10;;;;;40.40;96151.00;;;;8372549;28;20228;-66
2023/06/20 13:06:51;;;;;;;8.27;3.70;;;;;40.20;96157.00;;;;8372721;28;20694;-66
2023/06/20 13:10:57;;;;;;;6.20;3.72;;;;;40.50;96153.00;;;;8380030;28;20238;-66
2023/06/20 13:15:01;;;;;;;5.25;3.35;;;;;40.50;96154.00;;;;8371552;28;20244;-66
2023/06/20 13:19:10;;;;;;;6.70;3.85;;;;;40.70;96157.00;;;;8362847;28;20205;-66
2023/06/20 13:23:13;;;;;;;5.57;3.83;;;;;41.00;96156.00;;;;8375941;28;20211;-65
2023/06/20 13:27:18;;;;;;;9.95;4.07;;;;;41.00;96150.00;;;;8366967;28;20200;-67
2023/06/20 13:31:22;;;;;;;5.78;3.90;;;;;41.10;96142.00;;;;8373155;28;20231;-64
2023/06/20 13:35:30;;;;;;;6.55;4.03;;;;;40.90;96142.00;;;;8373288;28;20196;-66
2023/06/20 13:39:43;;;;;;;7.97;4.10;;;;;41.00;96134.00;;;;8373895;28;20315;-65
2023/06/20 13:43:49;;;;;;;6.28;3.60;;;;;41.40;96135.00;;;;8365854;28;20232;-66
2023/06/20 13:47:54;;;;;;;4.38;3.78;;;;;42.10;96136.00;;;;8369296;28;20196;-67
2023/06/20 13:52:01;;;;;;;8.40;3.53;;;;;42.30;96138.00;;;;8371984;28;20224;-66
2023/06/20 13:56:08;;;;;;;3.88;3.40;;;;;42.70;96137.00;;;;8360876;28;20202;-67
2023/06/20 14:00:14;;;;;;;6.13;3.58;;;;;43.30;96133.00;;;;8363872;28;20196;-65
2023/06/20 14:04:22;;;;;;;6.05;3.85;;;;;43.60;96129.00;;;;8380999;28;20216;-65
2023/06/20 14:08:25;;;;;;;7.68;3.97;;;;;43.80;96128.00;;;;8376730;28;20500;-65
2023/06/20 14:12:28;;;;;;;5.05;3.90;;;;;43.80;96128.00;;;;8371674;28;20347;-67
2023/06/20 14:16:35;;;;;;;7.88;3.70;;;;;43.50;96119.00;;;;8376054;28;20286;-67
2023/06/20 14:20:38;;;;;;;5.40;3.60;;;;;43.50;96122.00;;;;8363336;28;20192;-70
2023/06/20 14:24:41;;;;;;;14.55;3.95;;;;;43.20;96121.00;;;;8371118;28;20526;-69
2023/06/20 14:28:44;;;;;;;6.47;3.55;;;;;42.20;96120.00;;;;8371345;28;20591;-69
2023/06/20 14:32:51;;;;;;;5.70;3.40;;;;;41.20;96110.00;;;;8357283;28;20240;-71
2023/06/20 14:36:59;;;;;;;10.27;3.63;;;;;40.60;96104.00;;;;8315560;28;20700;-72
2023/06/20 14:41:03;;;;;;;8.45;3.47;;;;;40.70;96109.00;;;;8323603;28;20205;-72
2023/06/20 14:45:07;;;;;;;9.13;3.92;;;;;41.50;96100.00;;;;8317637;28;20285;-75
2023/06/20 14:49:12;;;;;;;14.82;4.05;;;;;42.20;96103.00;;;;8313300;28;20625;-71
2023/06/20 14:53:15;;;;;;;7.63;3.60;;;;;42.60;96105.00;;;;8293729;28;20223;-71
2023/06/20 14:57:18;;;;;;;11.20;4.05;;;;;43.00;96105.00;;;;8325123;28;20204;-71
2023/06/20 15:01:24;;;;;;;8.07;3.17;;;;;43.30;96103.00;;;;8324865;28;20213;-69
2023/06/20 15:05:32;;;;;;;6.82;3.33;;;;;43.20;96107.00;;;;8323832;28;20216;-69
2023/06/20 15:09:38;;;;;;;4.90;3.17;;;;;43.00;96107.00;;;;8298784;28;20221;-69
2023/06/20 15:13:55;;;;;;;7.45;3.20;;;;;43.20;96102.00;;;;8318212;28;20205;-69
2023/06/20 15:17:58;;;;;;;5.90;3.42;;;;;43.50;96107.00;;;;8343622;28;20196;-69
2023/06/20 15:22:03;;;;;;;7.47;3.40;;;;;43.60;96096.00;;;;8337068;28;20633;-69
2023/06/20 15:26:06;;;;;;;11.40;3.85;;;;;43.30;96094.00;;;;8329866;28;20192;-69
2023/06/20 15:30:12;;;;;;;9.05;3.35;;;;;43.20;96094.00;;;;8351113;28;20224;-69
2023/06/20 15:34:17;;;;;;;10.00;3.88;;;;;43.10;96086.00;;;;8342306;28;20233;-69
2023/06/20 15:38:24;;;;;;;11.02;3.58;;;;;43.00;96078.00;;;;8327234;28;20207;-69
2023/06/20 15:42:31;;;;;;;10.55;3.33;;;;;42.80;96087.00;;;;8335332;28;20204;-69
2023/06/20 15:46:37;;;;;;;10.85;4.03;;;;;42.90;96081.00;;;;8337489;28;20235;-69
2023/06/20 15:50:56;;;;;;;11.32;3.67;;;;;43.00;96078.00;;;;8340646;28;20216;-68
2023/06/20 15:55:02;;;;;;;13.57;3.70;;;;;43.10;96072.00;;;;8349456;28;20212;-69
2023/06/20 15:59:07;;;;;;;10.43;3.58;;;;;42.90;96074.00;;;;8345933;28;20232;-69
2023/06/20 16:03:10;;;;;;;10.75;3.40;;;;;42.50;96070.00;;;;8341598;28;20625;-69
2023/06/20 16:07:14;;;;;;;8.05;3.63;;;;;42.50;96063.00;;;;8341791;28;20269;-69
2023/06/20 16:11:20;;;;;;;9.13;3.67;;;;;42.40;96068.00;;;;8316280;28;20248;-69
2023/06/20 16:15:31;;;;;;;6.47;3.67;;;;;42.60;96075.00;;;;8333490;28;20280;-69
2023/06/20 16:19:35;;;;;;;5.43;3.65;;;;;42.50;96079.00;;;;8321226;28;20287;-69
2023/06/20 16:23:45;;;;;;;8.93;3.60;;;;;42.10;96068.00;;;;8341668;28;20283;-70
2023/06/20 16:27:52;;;;;;;6.60;4.03;;;;;41.70;96071.00;;;;8321374;28;20277;-69
2023/06/20 16:32:01;;;;;;;5.07;3.72;;;;;41.60;96072.00;;;;8319024;28;20221;-69
2023/06/20 16:36:07;;;;;;;8.95;3.80;;;;;41.30;96064.00;;;;8340125;28;20195;-69
2023/06/20 16:40:12;;;;;;;6.38;3.95;;;;;41.10;96066.00;;;;8342495;28;20203;-69
2023/06/20 16:44:21;;;;;;;7.22;4.05;;;;;41.30;96068.00;;;;8324492;28;20281;-69
2023/06/20 16:48:29;;;;;;;7.05;3.83;;;;;41.40;96055.00;;;;8321042;28;20284;-69
2023/06/20 16:52:35;;;;;;;9.20;4.60;;;;;41.10;96053.00;;;;8319386;28;20630;-69
2023/06/20 16:56:38;;;;;;;5.95;3.90;;;;;41.10;96042.00;;;;8335867;28;20200;-69
2023/06/20 17:00:43;;;;;;;10.02;4.35;;;;;41.10;96034.00;;;;8334753;28;21108;-69
2023/06/20 17:04:46;;;;;;;5.50;3.83;;;;;41.20;96033.00;;;;8337147;28;20244;-69
2023/06/20 17:08:49;;;;;;;7.80;3.80;;;;;41.00;96038.00;;;;8326141;28;20207;-69
2023/06/20 17:12:55;;;;;;;9.20;3.40;;;;;40.80;96038.00;;;;8319608;28;20232;-69
2023/06/20 17:16:59;;;;;;;6.72;4.03;;;;;40.70;96033.00;;;;8350885;28;20288;-69
2023/06/20 17:21:05;;;;;;;11.15;3.80;;;;;40.50;96030.00;;;;8345383;28;20193;-69
2023/06/20 17:25:11;;;;;;;9.13;3.90;;;;;40.50;96031.00;;;;8323484;28;20288;-69
2023/06/20 17:29:15;;;;;;;11.15;4.13;;;;;40.40;96023.00;;;;8330462;28;20288;-69
2023/06/20 17:33:28;;;;;;;5.10;4.13;;;;;40.40;96022.00;;;;8329410;28;20228;-69
2023/06/20 17:37:35;;;;;;;9.75;4.47;;;;;40.20;96023.00;;;;8325144;28;20283;-69
2023/06/20 17:41:41;;;;;;;7.90;4.28;;;;;40.00;96023.00;;;;8329210;28;20629;-69
2023/06/20 17:45:47;;;;;;;8.65;4.47;;;;;39.40;96031.00;;;;8314421;28;20270;-69
2023/06/20 17:49:52;;;;;;;9.88;4.25;;;;;38.80;96033.00;;;;8318477;28;20197;-69
2023/06/20 17:53:58;;;;;;;8.75;4.70;;;;;38.30;96043.00;;;;8322536;28;20228;-69
2023/06/20 17:58:05;;;;;;;8.10;4.65;;;;;37.70;96037.00;;;;8305733;28;20296;-68
2023/06/20 18:02:17;;;;;;;7.22;4.45;;;;;37.10;96045.00;;;;8314853;28;20592;-69
2023/06/20 18:06:26;;;;;;;7.40;4.47;;;;;36.70;96043.00;;;;8312014;28;20208;-69
2023/06/20 18:10:32;;;;;;;7.78;4.35;;;;;36.30;96033.00;;;;8296844;28;20263;-72
2023/06/20 18:14:40;;;;;;;7.30;4.60;;;;;35.90;96032.00;;;;8313846;28;20209;-72
2023/06/20 18:18:44;;;;;;;9.82;5.07;;;;;35.50;96026.00;;;;8310460;28;20217;-72
2023/06/20 18:22:53;;;;;;;9.13;5.00;;;;;35.00;96025.00;;;;8315029;28;20197;-72
2023/06/20 18:26:56;;;;;;;10.18;5.43;;;;;34.50;96020.00;;;;8305649;28;20296;-71
2023/06/20 18:31:08;;;;;;;13.02;5.13;;;;;34.00;96008.00;;;;8308553;28;20229;-72
2023/06/20 18:35:19;;;;;;;8.85;5.45;;;;;33.60;96003.00;;;;8316644;28;20201;-73
2023/06/20 18:39:25;;;;;;;15.65;5.25;;;;;33.20;96010.00;;;;8318395;28;20208;-73
2023/06/20 18:43:29;;;;;;;12.95;5.30;;;;;32.80;96017.00;;;;8331616;28;20579;-74
2023/06/20 18:47:32;;;;;;;9.20;5.90;;;;;32.40;96011.00;;;;8318731;28;20204;-76
2023/06/20 18:51:41;;;;;;;10.23;5.22;;;;;32.20;96021.00;;;;8331848;28;20227;-70
2023/06/20 18:55:51;;;;;;;10.35;5.75;;;;;31.90;96017.00;;;;8339196;28;20693;-70
2023/06/20 18:59:59;;;;;;;7.75;5.68;;;;;31.60;96016.00;;;;8321104;28;20284;-71
2023/06/20 19:04:03;;;;;;;10.82;5.40;;;;;31.30;96024.00;;;;8324780;28;20225;-70
2023/06/20 19:08:07;;;;;;;11.50;5.45;;;;;31.00;96023.00;;;;8334866;28;20200;-72
2023/06/20 19:12:15;;;;;;;9.57;5.18;;;;;30.70;96019.00;;;;8334351;28;20231;-67
2023/06/20 19:16:25;;;;;;;8.88;5.68;;;;;30.50;96050.00;;;;8322196;28;20194;-66
2023/06/20 19:20:29;;;;;;;9.35;6.32;;;;;30.30;96055.00;;;;8336261;28;20204;-66
2023/06/20 19:24:47;;;;;;;8.43;5.82;;;;;29.90;96066.00;;;;8338446;28;20223;-68
2023/06/20 19:28:54;;;;;;;9.13;5.57;;;;;29.60;96072.00;;;;8324419;28;20209;-67
2023/06/20 19:32:57;;;;;;;11.30;5.55;;;;;29.10;96085.00;;;;8320726;28;20231;-67
2023/06/20 19:37:01;;;;;;;8.57;5.80;;;;;28.80;96086.00;;;;8322435;28;20209;-67
2023/06/20 19:41:07;;;;;;;7.47;5.78;;;;;28.40;96087.00;;;;8325447;28;20284;-67
2023/06/20 19:45:35;;;;;;;13.02;6.57;;;;;28.10;96103.00;;;;8323943;28;20505;-69
2023/06/20 19:49:47;;;;;;;7.78;5.55;;;;;27.80;96110.00;;;;8330331;28;20206;-69
2023/06/20 19:53:53;;;;;;;7.05;5.43;;;;;27.60;96114.00;;;;8328910;28;20307;-67
2023/06/20 19:57:56;;;;;;;15.48;6.80;;;;;27.40;96126.00;;;;8325996;28;20610;-67
2023/06/20 20:02:01;;;;;;;10.10;5.75;;;;;27.30;96119.00;;;;8310807;28;20303;-64
2023/06/20 20:06:04;;;;;;;11.82;6.20;;;;;27.20;96115.00;;;;8342796;28;20193;-65
2023/06/20 20:10:08;;;;;;;9.98;5.75;;;;;27.10;96119.00;;;;8333831;28;20202;-67
2023/06/20 20:14:13;;;;;;;8.20;5.80;;;;;26.90;96121.00;;;;8315696;28;20265;-65
2023/06/20 20:18:20;;;;;;;8.48;5.80;;;;;26.70;96131.00;;;;8314064;28;20205;-66
2023/06/20 20:22:24;;;;;;;10.80;6.00;;;;;26.70;96137.00;;;;8323338;28;20193;-65